sensor_id;sensor_type;location;lat;lon;timestamp;P1;durP1;ratioP1;P2;durP2;ratioP2
31660;SDS011;18267;52.234;7.444;2022-07-04T00:00:19;4.07;;;1.30;;
31660;SDS011;18267;52.234;7.444;2022-07-04T00:02:46;3.08;;;1.40;;
31660;SDS011;18267;52.234;7.444;2022-07-04T00:05:12;6.90;;;1.60;;
31660;SDS011;18267;52.234;7.444;2022-07-04T00:07:39;2.38;;;1.08;;
31660;SDS011;18267;52.234;7.444;2022-07-04T00:10:08;2.83;;;1.17;;
31660;SDS011;18267;52.234;7.444;2022-07-04T00:12:35;1.95;;;1.58;;
31660;SDS011;18267;52.234;7.444;2022-07-04T00:15:02;2.13;;;1.48;;
31660;SDS011;18267;52.234;7.444;2022-07-04T00:17:28;1.25;;;1.15;;
31660;SDS011;18267;52.234;7.444;2022-07-04T00:19:54;1.55;;;1.35;;
31660;SDS011;18267;52.234;7.444;2022-07-04T00:22:19;6.13;;;1.70;;
31660;SDS011;18267;52.234;7.444;2022-07-04T00:24:45;1.98;;;1.45;;
31660;SDS011;18267;52.234;7.444;2022-07-04T00:27:10;1.67;;;1.35;;
31660;SDS011;18267;52.234;7.444;2022-07-04T00:29:39;2.10;;;1.60;;
31660;SDS011;18267;52.234;7.444;2022-07-04T00:32:05;2.28;;;1.65;;
31660;SDS011;18267;52.234;7.444;2022-07-04T00:34:31;2.47;;;1.58;;
31660;SDS011;18267;52.234;7.444;2022-07-04T00:36:57;2.92;;;1.67;;
31660;SDS011;18267;52.234;7.444;2022-07-04T00:39:22;1.73;;;1.63;;
31660;SDS011;18267;52.234;7.444;2022-07-04T00:41:48;2.15;;;1.45;;
31660;SDS011;18267;52.234;7.444;2022-07-04T00:44:14;1.90;;;1.45;;
31660;SDS011;18267;52.234;7.444;2022-07-04T00:46:43;4.07;;;1.67;;
31660;SDS011;18267;52.234;7.444;2022-07-04T00:49:10;6.22;;;1.60;;
31660;SDS011;18267;52.234;7.444;2022-07-04T00:51:37;2.03;;;0.95;;
31660;SDS011;18267;52.234;7.444;2022-07-04T00:54:04;2.65;;;2.03;;
31660;SDS011;18267;52.234;7.444;2022-07-04T00:56:31;1.98;;;1.65;;
31660;SDS011;18267;52.234;7.444;2022-07-04T00:58:57;1.92;;;1.45;;
31660;SDS011;18267;52.234;7.444;2022-07-04T01:01:24;4.22;;;1.75;;
31660;SDS011;18267;52.234;7.444;2022-07-04T01:03:50;3.88;;;1.60;;
31660;SDS011;18267;52.234;7.444;2022-07-04T01:06:16;1.90;;;1.50;;
31660;SDS011;18267;52.234;7.444;2022-07-04T01:08:43;2.15;;;1.63;;
31660;SDS011;18267;52.234;7.444;2022-07-04T01:11:10;2.17;;;1.77;;
31660;SDS011;18267;52.234;7.444;2022-07-04T01:13:36;2.55;;;2.13;;
31660;SDS011;18267;52.234;7.444;2022-07-04T01:16:02;3.13;;;2.00;;
31660;SDS011;18267;52.234;7.444;2022-07-04T01:18:29;2.53;;;1.30;;
31660;SDS011;18267;52.234;7.444;2022-07-04T01:20:55;2.20;;;1.95;;
31660;SDS011;18267;52.234;7.444;2022-07-04T01:23:21;1.70;;;1.60;;
31660;SDS011;18267;52.234;7.444;2022-07-04T01:25:47;2.70;;;1.90;;
31660;SDS011;18267;52.234;7.444;2022-07-04T01:28:13;1.70;;;1.60;;
31660;SDS011;18267;52.234;7.444;2022-07-04T01:30:39;2.00;;;1.80;;
31660;SDS011;18267;52.234;7.444;2022-07-04T01:33:04;2.75;;;1.63;;
31660;SDS011;18267;52.234;7.444;2022-07-04T01:35:30;5.32;;;1.90;;
31660;SDS011;18267;52.234;7.444;2022-07-04T01:37:56;2.70;;;1.88;;
31660;SDS011;18267;52.234;7.444;2022-07-04T01:40:22;2.22;;;2.05;;
31660;SDS011;18267;52.234;7.444;2022-07-04T01:42:47;3.47;;;2.17;;
31660;SDS011;18267;52.234;7.444;2022-07-04T01:45:13;2.70;;;2.17;;
31660;SDS011;18267;52.234;7.444;2022-07-04T01:47:39;2.40;;;2.20;;
31660;SDS011;18267;52.234;7.444;2022-07-04T01:50:06;4.38;;;2.65;;
31660;SDS011;18267;52.234;7.444;2022-07-04T01:52:33;2.38;;;2.17;;
31660;SDS011;18267;52.234;7.444;2022-07-04T01:54:59;3.90;;;2.10;;
31660;SDS011;18267;52.234;7.444;2022-07-04T01:57:24;2.20;;;2.00;;
31660;SDS011;18267;52.234;7.444;2022-07-04T01:59:50;3.92;;;2.35;;
31660;SDS011;18267;52.234;7.444;2022-07-04T02:02:34;4.13;;;2.10;;
31660;SDS011;18267;52.234;7.444;2022-07-04T02:05:00;3.60;;;2.15;;
31660;SDS011;18267;52.234;7.444;2022-07-04T02:07:26;2.35;;;1.80;;
31660;SDS011;18267;52.234;7.444;2022-07-04T02:09:51;3.08;;;2.30;;
31660;SDS011;18267;52.234;7.444;2022-07-04T02:12:17;2.75;;;2.08;;
31660;SDS011;18267;52.234;7.444;2022-07-04T02:15:01;2.58;;;2.38;;
31660;SDS011;18267;52.234;7.444;2022-07-04T02:17:27;3.83;;;2.30;;
31660;SDS011;18267;52.234;7.444;2022-07-04T02:19:52;2.90;;;2.67;;
31660;SDS011;18267;52.234;7.444;2022-07-04T02:22:18;2.97;;;2.65;;
31660;SDS011;18267;52.234;7.444;2022-07-04T02:24:43;4.10;;;2.70;;
31660;SDS011;18267;52.234;7.444;2022-07-04T02:27:09;4.53;;;2.13;;
31660;SDS011;18267;52.234;7.444;2022-07-04T02:29:35;2.80;;;2.17;;
31660;SDS011;18267;52.234;7.444;2022-07-04T02:32:01;2.97;;;1.70;;
31660;SDS011;18267;52.234;7.444;2022-07-04T02:34:27;3.95;;;2.20;;
31660;SDS011;18267;52.234;7.444;2022-07-04T02:36:52;3.60;;;2.08;;
31660;SDS011;18267;52.234;7.444;2022-07-04T02:39:18;2.60;;;2.40;;
31660;SDS011;18267;52.234;7.444;2022-07-04T02:41:44;3.97;;;2.80;;
31660;SDS011;18267;52.234;7.444;2022-07-04T02:44:09;6.55;;;3.05;;
31660;SDS011;18267;52.234;7.444;2022-07-04T02:46:35;3.67;;;2.22;;
31660;SDS011;18267;52.234;7.444;2022-07-04T02:49:01;3.35;;;2.10;;
31660;SDS011;18267;52.234;7.444;2022-07-04T02:51:28;6.03;;;2.15;;
31660;SDS011;18267;52.234;7.444;2022-07-04T02:53:53;2.63;;;2.42;;
31660;SDS011;18267;52.234;7.444;2022-07-04T02:56:19;3.75;;;2.03;;
31660;SDS011;18267;52.234;7.444;2022-07-04T02:58:45;2.20;;;2.00;;
31660;SDS011;18267;52.234;7.444;2022-07-04T03:01:10;2.80;;;2.47;;
31660;SDS011;18267;52.234;7.444;2022-07-04T03:03:40;2.50;;;2.30;;
31660;SDS011;18267;52.234;7.444;2022-07-04T03:06:09;2.42;;;2.03;;
31660;SDS011;18267;52.234;7.444;2022-07-04T03:08:36;2.70;;;2.33;;
31660;SDS011;18267;52.234;7.444;2022-07-04T03:11:02;4.72;;;2.33;;
31660;SDS011;18267;52.234;7.444;2022-07-04T03:13:28;3.67;;;2.67;;
31660;SDS011;18267;52.234;7.444;2022-07-04T03:15:54;3.50;;;2.50;;
31660;SDS011;18267;52.234;7.444;2022-07-04T03:18:19;4.53;;;2.63;;
31660;SDS011;18267;52.234;7.444;2022-07-04T03:20:46;3.05;;;2.65;;
31660;SDS011;18267;52.234;7.444;2022-07-04T03:23:11;4.78;;;3.58;;
31660;SDS011;18267;52.234;7.444;2022-07-04T03:25:38;3.53;;;3.05;;
31660;SDS011;18267;52.234;7.444;2022-07-04T03:28:05;4.63;;;3.45;;
31660;SDS011;18267;52.234;7.444;2022-07-04T03:30:30;3.80;;;3.42;;
31660;SDS011;18267;52.234;7.444;2022-07-04T03:32:57;6.97;;;3.47;;
31660;SDS011;18267;52.234;7.444;2022-07-04T03:35:22;7.60;;;3.88;;
31660;SDS011;18267;52.234;7.444;2022-07-04T03:37:48;4.72;;;3.50;;
31660;SDS011;18267;52.234;7.444;2022-07-04T03:40:14;3.72;;;3.42;;
31660;SDS011;18267;52.234;7.444;2022-07-04T03:42:40;3.47;;;3.17;;
31660;SDS011;18267;52.234;7.444;2022-07-04T03:45:06;3.88;;;3.10;;
31660;SDS011;18267;52.234;7.444;2022-07-04T03:47:32;4.13;;;3.20;;
31660;SDS011;18267;52.234;7.444;2022-07-04T03:49:58;3.80;;;2.80;;
31660;SDS011;18267;52.234;7.444;2022-07-04T03:52:24;3.47;;;3.05;;
31660;SDS011;18267;52.234;7.444;2022-07-04T03:54:50;3.97;;;3.67;;
31660;SDS011;18267;52.234;7.444;2022-07-04T03:57:15;5.88;;;3.67;;
31660;SDS011;18267;52.234;7.444;2022-07-04T03:59:41;5.15;;;3.42;;
31660;SDS011;18267;52.234;7.444;2022-07-04T04:02:07;4.50;;;3.55;;
31660;SDS011;18267;52.234;7.444;2022-07-04T04:04:32;4.22;;;2.88;;
31660;SDS011;18267;52.234;7.444;2022-07-04T04:07:16;3.17;;;2.85;;
31660;SDS011;18267;52.234;7.444;2022-07-04T04:09:42;7.22;;;3.25;;
31660;SDS011;18267;52.234;7.444;2022-07-04T04:12:07;3.75;;;3.13;;
31660;SDS011;18267;52.234;7.444;2022-07-04T04:14:33;3.33;;;3.00;;
31660;SDS011;18267;52.234;7.444;2022-07-04T04:16:59;3.30;;;2.63;;
31660;SDS011;18267;52.234;7.444;2022-07-04T04:19:24;4.07;;;3.53;;
31660;SDS011;18267;52.234;7.444;2022-07-04T04:21:50;4.72;;;3.95;;
31660;SDS011;18267;52.234;7.444;2022-07-04T04:24:15;6.60;;;3.60;;
31660;SDS011;18267;52.234;7.444;2022-07-04T04:26:41;5.05;;;3.83;;
31660;SDS011;18267;52.234;7.444;2022-07-04T04:29:06;6.22;;;3.88;;
31660;SDS011;18267;52.234;7.444;2022-07-04T04:31:32;5.88;;;4.05;;
31660;SDS011;18267;52.234;7.444;2022-07-04T04:33:57;4.57;;;4.18;;
31660;SDS011;18267;52.234;7.444;2022-07-04T04:36:23;5.50;;;3.85;;
31660;SDS011;18267;52.234;7.444;2022-07-04T04:38:49;6.45;;;4.07;;
31660;SDS011;18267;52.234;7.444;2022-07-04T04:41:15;5.70;;;5.05;;
31660;SDS011;18267;52.234;7.444;2022-07-04T04:43:41;9.82;;;5.43;;
31660;SDS011;18267;52.234;7.444;2022-07-04T04:46:07;4.93;;;4.53;;
31660;SDS011;18267;52.234;7.444;2022-07-04T04:48:33;5.43;;;4.63;;
31660;SDS011;18267;52.234;7.444;2022-07-04T04:50:58;10.40;;;4.90;;
31660;SDS011;18267;52.234;7.444;2022-07-04T04:53:24;8.00;;;4.72;;
31660;SDS011;18267;52.234;7.444;2022-07-04T04:55:53;6.78;;;5.00;;
31660;SDS011;18267;52.234;7.444;2022-07-04T04:58:19;5.10;;;4.70;;
31660;SDS011;18267;52.234;7.444;2022-07-04T05:00:45;6.22;;;4.43;;
31660;SDS011;18267;52.234;7.444;2022-07-04T05:03:13;6.68;;;4.28;;
31660;SDS011;18267;52.234;7.444;2022-07-04T05:05:38;5.00;;;4.50;;
31660;SDS011;18267;52.234;7.444;2022-07-04T05:08:04;4.90;;;4.25;;
31660;SDS011;18267;52.234;7.444;2022-07-04T05:10:30;5.65;;;4.50;;
31660;SDS011;18267;52.234;7.444;2022-07-04T05:12:55;5.35;;;4.43;;
31660;SDS011;18267;52.234;7.444;2022-07-04T05:15:21;6.80;;;4.78;;
31660;SDS011;18267;52.234;7.444;2022-07-04T05:17:46;6.70;;;4.85;;
31660;SDS011;18267;52.234;7.444;2022-07-04T05:20:12;11.80;;;4.50;;
31660;SDS011;18267;52.234;7.444;2022-07-04T05:22:38;9.68;;;4.43;;
31660;SDS011;18267;52.234;7.444;2022-07-04T05:25:04;7.68;;;4.18;;
31660;SDS011;18267;52.234;7.444;2022-07-04T05:27:30;5.75;;;4.45;;
31660;SDS011;18267;52.234;7.444;2022-07-04T05:29:56;5.82;;;3.90;;
31660;SDS011;18267;52.234;7.444;2022-07-04T05:32:22;7.00;;;4.10;;
31660;SDS011;18267;52.234;7.444;2022-07-04T05:34:48;6.32;;;4.18;;
31660;SDS011;18267;52.234;7.444;2022-07-04T05:37:13;7.43;;;3.78;;
31660;SDS011;18267;52.234;7.444;2022-07-04T05:39:39;9.02;;;4.25;;
31660;SDS011;18267;52.234;7.444;2022-07-04T05:42:05;4.03;;;3.58;;
31660;SDS011;18267;52.234;7.444;2022-07-04T05:44:30;5.18;;;3.92;;
31660;SDS011;18267;52.234;7.444;2022-07-04T05:46:56;6.00;;;3.63;;
31660;SDS011;18267;52.234;7.444;2022-07-04T05:49:21;4.78;;;4.00;;
31660;SDS011;18267;52.234;7.444;2022-07-04T05:51:47;5.05;;;3.70;;
31660;SDS011;18267;52.234;7.444;2022-07-04T05:54:12;6.80;;;3.40;;
31660;SDS011;18267;52.234;7.444;2022-07-04T05:56:38;5.60;;;3.53;;
31660;SDS011;18267;52.234;7.444;2022-07-04T05:59:04;4.22;;;3.80;;
31660;SDS011;18267;52.234;7.444;2022-07-04T06:01:30;7.32;;;3.17;;
31660;SDS011;18267;52.234;7.444;2022-07-04T06:03:55;8.02;;;3.58;;
31660;SDS011;18267;52.234;7.444;2022-07-04T06:06:21;11.05;;;3.33;;
31660;SDS011;18267;52.234;7.444;2022-07-04T06:08:46;6.07;;;3.17;;
31660;SDS011;18267;52.234;7.444;2022-07-04T06:11:12;5.28;;;3.20;;
31660;SDS011;18267;52.234;7.444;2022-07-04T06:13:39;10.13;;;2.95;;
31660;SDS011;18267;52.234;7.444;2022-07-04T06:16:04;6.30;;;2.33;;
31660;SDS011;18267;52.234;7.444;2022-07-04T06:18:30;11.27;;;3.15;;
31660;SDS011;18267;52.234;7.444;2022-07-04T06:20:55;4.07;;;2.65;;
31660;SDS011;18267;52.234;7.444;2022-07-04T06:23:21;5.60;;;2.78;;
31660;SDS011;18267;52.234;7.444;2022-07-04T06:25:47;3.78;;;2.38;;
31660;SDS011;18267;52.234;7.444;2022-07-04T06:28:12;8.68;;;2.80;;
31660;SDS011;18267;52.234;7.444;2022-07-04T06:30:38;7.90;;;2.97;;
31660;SDS011;18267;52.234;7.444;2022-07-04T06:33:03;2.50;;;1.65;;
31660;SDS011;18267;52.234;7.444;2022-07-04T06:35:30;2.72;;;1.90;;
31660;SDS011;18267;52.234;7.444;2022-07-04T06:38:22;3.10;;;2.20;;
31660;SDS011;18267;52.234;7.444;2022-07-04T06:40:50;2.90;;;1.77;;
31660;SDS011;18267;52.234;7.444;2022-07-04T06:43:19;3.33;;;2.03;;
31660;SDS011;18267;52.234;7.444;2022-07-04T06:45:44;3.38;;;1.75;;
31660;SDS011;18267;52.234;7.444;2022-07-04T06:48:10;3.22;;;1.45;;
31660;SDS011;18267;52.234;7.444;2022-07-04T06:50:35;5.88;;;1.40;;
31660;SDS011;18267;52.234;7.444;2022-07-04T06:53:02;5.97;;;1.48;;
31660;SDS011;18267;52.234;7.444;2022-07-04T06:55:29;1.30;;;1.17;;
31660;SDS011;18267;52.234;7.444;2022-07-04T06:57:55;4.63;;;1.35;;
31660;SDS011;18267;52.234;7.444;2022-07-04T07:00:21;3.30;;;1.17;;
31660;SDS011;18267;52.234;7.444;2022-07-04T07:02:46;5.20;;;1.23;;
31660;SDS011;18267;52.234;7.444;2022-07-04T07:05:12;3.78;;;1.08;;
31660;SDS011;18267;52.234;7.444;2022-07-04T07:07:37;2.17;;;0.93;;
31660;SDS011;18267;52.234;7.444;2022-07-04T07:10:03;3.83;;;0.85;;
31660;SDS011;18267;52.234;7.444;2022-07-04T07:12:31;2.08;;;0.90;;
31660;SDS011;18267;52.234;7.444;2022-07-04T07:14:57;2.53;;;0.93;;
31660;SDS011;18267;52.234;7.444;2022-07-04T07:17:25;2.88;;;0.70;;
31660;SDS011;18267;52.234;7.444;2022-07-04T07:19:51;2.70;;;1.00;;
31660;SDS011;18267;52.234;7.444;2022-07-04T07:22:17;4.50;;;1.25;;
31660;SDS011;18267;52.234;7.444;2022-07-04T07:24:43;2.85;;;0.73;;
31660;SDS011;18267;52.234;7.444;2022-07-04T07:27:09;4.85;;;1.13;;
31660;SDS011;18267;52.234;7.444;2022-07-04T07:29:35;5.30;;;1.20;;
31660;SDS011;18267;52.234;7.444;2022-07-04T07:32:01;1.52;;;0.80;;
31660;SDS011;18267;52.234;7.444;2022-07-04T07:34:27;2.05;;;1.08;;
31660;SDS011;18267;52.234;7.444;2022-07-04T07:36:53;2.20;;;1.08;;
31660;SDS011;18267;52.234;7.444;2022-07-04T07:39:19;2.72;;;1.10;;
31660;SDS011;18267;52.234;7.444;2022-07-04T07:41:45;6.28;;;0.90;;
31660;SDS011;18267;52.234;7.444;2022-07-04T07:44:10;3.17;;;1.00;;
31660;SDS011;18267;52.234;7.444;2022-07-04T07:46:36;4.78;;;0.80;;
31660;SDS011;18267;52.234;7.444;2022-07-04T07:49:02;0.90;;;0.73;;
31660;SDS011;18267;52.234;7.444;2022-07-04T07:51:28;2.28;;;0.90;;
31660;SDS011;18267;52.234;7.444;2022-07-04T07:53:54;4.90;;;0.80;;
31660;SDS011;18267;52.234;7.444;2022-07-04T07:56:20;4.13;;;0.68;;
31660;SDS011;18267;52.234;7.444;2022-07-04T07:58:45;1.63;;;0.63;;
31660;SDS011;18267;52.234;7.444;2022-07-04T08:01:11;4.72;;;0.80;;
31660;SDS011;18267;52.234;7.444;2022-07-04T08:03:36;2.60;;;0.40;;
31660;SDS011;18267;52.234;7.444;2022-07-04T08:06:21;3.15;;;0.90;;
31660;SDS011;18267;52.234;7.444;2022-07-04T08:08:46;0.38;;;0.32;;
31660;SDS011;18267;52.234;7.444;2022-07-04T08:11:12;3.80;;;0.60;;
31660;SDS011;18267;52.234;7.444;2022-07-04T08:13:38;2.45;;;0.52;;
31660;SDS011;18267;52.234;7.444;2022-07-04T08:16:04;2.85;;;0.50;;
31660;SDS011;18267;52.234;7.444;2022-07-04T08:18:31;2.38;;;0.63;;
31660;SDS011;18267;52.234;7.444;2022-07-04T08:20:57;1.60;;;0.63;;
31660;SDS011;18267;52.234;7.444;2022-07-04T08:23:22;3.08;;;0.55;;
31660;SDS011;18267;52.234;7.444;2022-07-04T08:25:48;7.38;;;0.70;;
31660;SDS011;18267;52.234;7.444;2022-07-04T08:28:14;0.40;;;0.30;;
31660;SDS011;18267;52.234;7.444;2022-07-04T08:30:39;4.00;;;0.43;;
31660;SDS011;18267;52.234;7.444;2022-07-04T08:33:05;2.28;;;0.63;;
31660;SDS011;18267;52.234;7.444;2022-07-04T08:35:30;5.15;;;0.50;;
31660;SDS011;18267;52.234;7.444;2022-07-04T08:37:56;1.92;;;0.55;;
31660;SDS011;18267;52.234;7.444;2022-07-04T08:40:25;1.15;;;0.40;;
31660;SDS011;18267;52.234;7.444;2022-07-04T08:42:52;6.30;;;0.50;;
31660;SDS011;18267;52.234;7.444;2022-07-04T08:45:21;1.67;;;0.47;;
31660;SDS011;18267;52.234;7.444;2022-07-04T08:47:52;2.17;;;0.43;;
31660;SDS011;18267;52.234;7.444;2022-07-04T08:50:25;1.42;;;0.32;;
31660;SDS011;18267;52.234;7.444;2022-07-04T08:52:56;0.68;;;0.50;;
31660;SDS011;18267;52.234;7.444;2022-07-04T08:55:28;4.18;;;0.45;;
31660;SDS011;18267;52.234;7.444;2022-07-04T08:58:13;1.35;;;0.32;;
31660;SDS011;18267;52.234;7.444;2022-07-04T09:00:54;0.52;;;0.45;;
31660;SDS011;18267;52.234;7.444;2022-07-04T09:03:26;0.73;;;0.30;;
31660;SDS011;18267;52.234;7.444;2022-07-04T09:05:53;1.52;;;0.45;;
31660;SDS011;18267;52.234;7.444;2022-07-04T09:08:20;1.25;;;0.40;;
31660;SDS011;18267;52.234;7.444;2022-07-04T09:10:49;2.05;;;0.50;;
31660;SDS011;18267;52.234;7.444;2022-07-04T09:13:16;4.32;;;0.40;;
31660;SDS011;18267;52.234;7.444;2022-07-04T09:15:43;1.55;;;0.30;;
31660;SDS011;18267;52.234;7.444;2022-07-04T09:18:21;6.15;;;0.40;;
31660;SDS011;18267;52.234;7.444;2022-07-04T09:20:51;3.80;;;0.52;;
31660;SDS011;18267;52.234;7.444;2022-07-04T09:23:19;4.50;;;0.40;;
31660;SDS011;18267;52.234;7.444;2022-07-04T09:25:50;2.15;;;0.50;;
31660;SDS011;18267;52.234;7.444;2022-07-04T09:31:22;1.35;;;0.40;;
31660;SDS011;18267;52.234;7.444;2022-07-04T09:33:50;0.70;;;0.40;;
31660;SDS011;18267;52.234;7.444;2022-07-04T09:36:19;21.48;;;0.80;;
31660;SDS011;18267;52.234;7.444;2022-07-04T09:38:57;8.20;;;0.73;;
31660;SDS011;18267;52.234;7.444;2022-07-04T09:41:59;1.30;;;0.47;;
31660;SDS011;18267;52.234;7.444;2022-07-04T09:44:43;0.63;;;0.50;;
31660;SDS011;18267;52.234;7.444;2022-07-04T09:47:19;0.98;;;0.30;;
31660;SDS011;18267;52.234;7.444;2022-07-04T09:52:29;3.53;;;0.90;;
31660;SDS011;18267;52.234;7.444;2022-07-04T09:55:00;1.33;;;0.52;;
31660;SDS011;18267;52.234;7.444;2022-07-04T09:57:32;1.17;;;0.32;;
31660;SDS011;18267;52.234;7.444;2022-07-04T10:05:46;2.92;;;0.70;;
31660;SDS011;18267;52.234;7.444;2022-07-04T10:08:31;6.13;;;1.10;;
31660;SDS011;18267;52.234;7.444;2022-07-04T10:10:57;1.25;;;0.40;;
31660;SDS011;18267;52.234;7.444;2022-07-04T10:13:24;1.88;;;0.57;;
31660;SDS011;18267;52.234;7.444;2022-07-04T10:15:50;4.07;;;0.82;;
31660;SDS011;18267;52.234;7.444;2022-07-04T10:18:17;8.57;;;0.73;;
31660;SDS011;18267;52.234;7.444;2022-07-04T10:20:44;1.75;;;0.50;;
31660;SDS011;18267;52.234;7.444;2022-07-04T10:23:11;0.68;;;0.40;;
31660;SDS011;18267;52.234;7.444;2022-07-04T10:25:36;1.83;;;0.70;;
31660;SDS011;18267;52.234;7.444;2022-07-04T10:28:02;2.10;;;0.50;;
31660;SDS011;18267;52.234;7.444;2022-07-04T10:30:32;1.80;;;0.70;;
31660;SDS011;18267;52.234;7.444;2022-07-04T10:33:04;5.28;;;0.50;;
31660;SDS011;18267;52.234;7.444;2022-07-04T10:38:23;2.67;;;0.47;;
31660;SDS011;18267;52.234;7.444;2022-07-04T10:48:49;5.10;;;0.80;;
31660;SDS011;18267;52.234;7.444;2022-07-04T10:51:17;1.20;;;0.52;;
31660;SDS011;18267;52.234;7.444;2022-07-04T10:53:58;2.15;;;0.50;;
31660;SDS011;18267;52.234;7.444;2022-07-04T10:58:52;2.95;;;0.60;;
31660;SDS011;18267;52.234;7.444;2022-07-04T11:01:19;4.55;;;0.60;;
31660;SDS011;18267;52.234;7.444;2022-07-04T11:03:45;2.05;;;0.52;;
31660;SDS011;18267;52.234;7.444;2022-07-04T11:11:58;1.38;;;0.50;;
31660;SDS011;18267;52.234;7.444;2022-07-04T11:14:44;2.60;;;0.50;;
31660;SDS011;18267;52.234;7.444;2022-07-04T11:17:26;1.55;;;0.50;;
31660;SDS011;18267;52.234;7.444;2022-07-04T11:20:01;2.47;;;0.60;;
31660;SDS011;18267;52.234;7.444;2022-07-04T11:22:29;2.13;;;0.70;;
31660;SDS011;18267;52.234;7.444;2022-07-04T11:24:55;2.95;;;0.38;;
31660;SDS011;18267;52.234;7.444;2022-07-04T11:27:22;0.80;;;0.40;;
31660;SDS011;18267;52.234;7.444;2022-07-04T11:29:54;1.48;;;0.60;;
31660;SDS011;18267;52.234;7.444;2022-07-04T11:32:21;4.35;;;0.60;;
31660;SDS011;18267;52.234;7.444;2022-07-04T11:34:54;1.67;;;0.43;;
31660;SDS011;18267;52.234;7.444;2022-07-04T11:37:20;4.20;;;0.80;;
31660;SDS011;18267;52.234;7.444;2022-07-04T11:39:49;5.07;;;0.80;;
31660;SDS011;18267;52.234;7.444;2022-07-04T11:42:16;4.85;;;0.70;;
31660;SDS011;18267;52.234;7.444;2022-07-04T11:45:00;9.40;;;0.80;;
31660;SDS011;18267;52.234;7.444;2022-07-04T11:47:37;4.40;;;0.60;;
31660;SDS011;18267;52.234;7.444;2022-07-04T11:50:08;7.38;;;0.80;;
31660;SDS011;18267;52.234;7.444;2022-07-04T11:52:42;5.45;;;0.80;;
31660;SDS011;18267;52.234;7.444;2022-07-04T11:55:10;2.40;;;0.68;;
31660;SDS011;18267;52.234;7.444;2022-07-04T11:57:38;2.47;;;0.68;;
31660;SDS011;18267;52.234;7.444;2022-07-04T12:00:13;5.78;;;0.70;;
31660;SDS011;18267;52.234;7.444;2022-07-04T12:02:40;5.57;;;0.80;;
31660;SDS011;18267;52.234;7.444;2022-07-04T12:05:07;4.03;;;0.88;;
31660;SDS011;18267;52.234;7.444;2022-07-04T12:07:35;2.15;;;0.70;;
31660;SDS011;18267;52.234;7.444;2022-07-04T12:15:16;1.95;;;0.70;;
31660;SDS011;18267;52.234;7.444;2022-07-04T12:17:42;1.83;;;0.50;;
31660;SDS011;18267;52.234;7.444;2022-07-04T12:20:14;2.08;;;0.88;;
31660;SDS011;18267;52.234;7.444;2022-07-04T12:25:43;5.57;;;0.70;;
31660;SDS011;18267;52.234;7.444;2022-07-04T12:28:11;4.10;;;0.70;;
31660;SDS011;18267;52.234;7.444;2022-07-04T12:30:40;1.65;;;0.80;;
31660;SDS011;18267;52.234;7.444;2022-07-04T12:33:13;0.65;;;0.60;;
31660;SDS011;18267;52.234;7.444;2022-07-04T12:35:43;1.63;;;0.70;;
31660;SDS011;18267;52.234;7.444;2022-07-04T12:38:11;3.38;;;0.95;;
31660;SDS011;18267;52.234;7.444;2022-07-04T12:43:21;4.50;;;1.00;;
31660;SDS011;18267;52.234;7.444;2022-07-04T12:46:09;2.55;;;0.90;;
31660;SDS011;18267;52.234;7.444;2022-07-04T12:48:35;6.82;;;1.05;;
31660;SDS011;18267;52.234;7.444;2022-07-04T12:53:48;3.55;;;1.15;;
31660;SDS011;18267;52.234;7.444;2022-07-04T12:59:02;5.78;;;1.17;;
31660;SDS011;18267;52.234;7.444;2022-07-04T13:01:30;7.72;;;1.15;;
31660;SDS011;18267;52.234;7.444;2022-07-04T13:03:56;3.50;;;1.15;;
31660;SDS011;18267;52.234;7.444;2022-07-04T13:06:22;3.78;;;1.30;;
31660;SDS011;18267;52.234;7.444;2022-07-04T13:08:48;3.08;;;1.15;;
31660;SDS011;18267;52.234;7.444;2022-07-04T13:11:14;4.03;;;1.02;;
31660;SDS011;18267;52.234;7.444;2022-07-04T13:13:58;1.35;;;1.15;;
31660;SDS011;18267;52.234;7.444;2022-07-04T13:16:24;6.82;;;1.52;;
31660;SDS011;18267;52.234;7.444;2022-07-04T13:18:49;2.00;;;1.40;;
31660;SDS011;18267;52.234;7.444;2022-07-04T13:21:15;2.75;;;1.08;;
31660;SDS011;18267;52.234;7.444;2022-07-04T13:23:41;1.92;;;1.10;;
31660;SDS011;18267;52.234;7.444;2022-07-04T13:26:07;4.05;;;1.20;;
31660;SDS011;18267;52.234;7.444;2022-07-04T13:28:32;5.68;;;1.75;;
31660;SDS011;18267;52.234;7.444;2022-07-04T13:30:58;3.50;;;1.10;;
31660;SDS011;18267;52.234;7.444;2022-07-04T13:33:23;5.18;;;1.13;;
31660;SDS011;18267;52.234;7.444;2022-07-04T13:41:10;1.13;;;0.65;;
31660;SDS011;18267;52.234;7.444;2022-07-04T13:43:45;3.88;;;0.70;;
31660;SDS011;18267;52.234;7.444;2022-07-04T13:46:12;3.13;;;1.13;;
31660;SDS011;18267;52.234;7.444;2022-07-04T13:48:43;2.00;;;0.95;;
31660;SDS011;18267;52.234;7.444;2022-07-04T13:51:22;3.65;;;0.82;;
31660;SDS011;18267;52.234;7.444;2022-07-04T13:53:47;4.90;;;1.20;;
31660;SDS011;18267;52.234;7.444;2022-07-04T13:58:55;3.72;;;1.10;;
31660;SDS011;18267;52.234;7.444;2022-07-04T14:01:26;3.65;;;1.35;;
31660;SDS011;18267;52.234;7.444;2022-07-04T14:03:51;3.10;;;1.08;;
31660;SDS011;18267;52.234;7.444;2022-07-04T14:06:19;4.53;;;1.48;;
31660;SDS011;18267;52.234;7.444;2022-07-04T14:08:58;3.50;;;1.23;;
31660;SDS011;18267;52.234;7.444;2022-07-04T14:11:27;4.10;;;1.05;;
31660;SDS011;18267;52.234;7.444;2022-07-04T14:13:52;3.22;;;1.05;;
31660;SDS011;18267;52.234;7.444;2022-07-04T14:16:20;1.23;;;0.93;;
31660;SDS011;18267;52.234;7.444;2022-07-04T14:18:46;4.20;;;1.33;;
31660;SDS011;18267;52.234;7.444;2022-07-04T14:21:12;4.93;;;1.23;;
31660;SDS011;18267;52.234;7.444;2022-07-04T14:23:37;4.70;;;1.10;;
31660;SDS011;18267;52.234;7.444;2022-07-04T14:26:09;2.78;;;1.02;;
31660;SDS011;18267;52.234;7.444;2022-07-04T14:28:44;2.42;;;0.80;;
31660;SDS011;18267;52.234;7.444;2022-07-04T14:31:12;3.03;;;1.23;;
31660;SDS011;18267;52.234;7.444;2022-07-04T14:33:43;2.25;;;1.05;;
31660;SDS011;18267;52.234;7.444;2022-07-04T14:36:08;4.95;;;1.40;;
31660;SDS011;18267;52.234;7.444;2022-07-04T14:38:37;1.40;;;1.00;;
31660;SDS011;18267;52.234;7.444;2022-07-04T14:41:03;4.32;;;1.13;;
31660;SDS011;18267;52.234;7.444;2022-07-04T14:43:58;7.53;;;1.13;;
31660;SDS011;18267;52.234;7.444;2022-07-04T14:46:25;3.13;;;1.08;;
31660;SDS011;18267;52.234;7.444;2022-07-04T14:49:09;1.33;;;1.20;;
31660;SDS011;18267;52.234;7.444;2022-07-04T14:51:53;1.15;;;0.90;;
31660;SDS011;18267;52.234;7.444;2022-07-04T14:54:25;2.30;;;1.00;;
31660;SDS011;18267;52.234;7.444;2022-07-04T14:56:53;2.45;;;0.90;;
31660;SDS011;18267;52.234;7.444;2022-07-04T14:59:21;2.10;;;1.10;;
31660;SDS011;18267;52.234;7.444;2022-07-04T15:01:47;1.23;;;1.02;;
31660;SDS011;18267;52.234;7.444;2022-07-04T15:04:14;3.45;;;1.00;;
31660;SDS011;18267;52.234;7.444;2022-07-04T15:06:40;6.45;;;1.42;;
31660;SDS011;18267;52.234;7.444;2022-07-04T15:09:11;1.90;;;1.02;;
31660;SDS011;18267;52.234;7.444;2022-07-04T15:11:42;1.00;;;0.90;;
31660;SDS011;18267;52.234;7.444;2022-07-04T15:14:15;1.10;;;1.00;;
31660;SDS011;18267;52.234;7.444;2022-07-04T15:17:01;2.47;;;0.80;;
31660;SDS011;18267;52.234;7.444;2022-07-04T15:19:29;5.32;;;1.17;;
31660;SDS011;18267;52.234;7.444;2022-07-04T15:21:55;3.45;;;1.02;;
31660;SDS011;18267;52.234;7.444;2022-07-04T15:24:50;2.90;;;1.00;;
31660;SDS011;18267;52.234;7.444;2022-07-04T15:27:18;3.00;;;0.82;;
31660;SDS011;18267;52.234;7.444;2022-07-04T15:29:48;3.67;;;0.90;;
31660;SDS011;18267;52.234;7.444;2022-07-04T15:32:25;0.60;;;0.60;;
31660;SDS011;18267;52.234;7.444;2022-07-04T15:35:04;2.97;;;0.85;;
31660;SDS011;18267;52.234;7.444;2022-07-04T15:37:39;3.58;;;1.33;;
31660;SDS011;18267;52.234;7.444;2022-07-04T15:40:07;1.88;;;0.98;;
31660;SDS011;18267;52.234;7.444;2022-07-04T15:42:44;2.38;;;0.80;;
31660;SDS011;18267;52.234;7.444;2022-07-04T15:45:10;0.75;;;0.75;;
31660;SDS011;18267;52.234;7.444;2022-07-04T15:47:44;4.35;;;1.20;;